MBS International Airport
KMBS : rendu visible

Aérodrome :











RETROUVEZ-NOUS SUR...

 
LOGIN :

S'inscrire | Disclaimer

   EN    FR    IT 

 









Légende :    VFR   VFR Marginal   IFR   IFR Intensif   IFR Très Intensif
Visi : 
Plafond : 
>= 8 km
>= 3000ft
5 à 8 km
1000 à 3000 ft
1500m à 5 km
500 à 1000 ft
800 à 1500m
200 à 500 ft
< 800m
< 200 ft
Symboles :   Orages  Brouillard  Fortes neiges  Fortes précipitations  Vent > 20 kt







- Altitude de l'aérodrome : 668 ft
- Code IATA : MBS


KMBS - MBS International

DERNIER METAR :
  • 202106Z 25003KT 10SM VCTS SCT038 BKN065 BKN090 26/21 A2995 RMK AO2 RAE06 P0000 T02560211

METARs EXPIRÉS :
  • 202053Z 00000KT 7SM -RA FEW040 SCT065 OVC100 25/19 A2994 RMK AO2 PK WND 26026/2033 RAB13 TSB14E44 SLP137 P0003 60003 T02500194 56009
  • 202020Z 26007KT 4SM TSRA SCT044 BKN060 OVC110 27/22 A2996 RMK AO2 LTG DSNT NE AND SW RAB13 TSB14 P0001 T02720222
  • 201953Z 20007KT 10SM BKN036 BKN047 OVC080 28/21 A2997 RMK AO2 LTG DSNT SW RAB27E38 SLP143 P0000 T02830211
  • 201853Z 20008KT 10SM FEW029 SCT039 BKN048 29/22 A2997 RMK AO2 SLP146 T02890217

TAF KMBS
Valide du 20 à 18h jusqu'au 21 à 18h UTC


201723Z 2018/2118 22008KT P6SM VCSH BKN040 BKN250
FM202300 22006KT P6SM VCTS SCT022 BKN035CB
FM210200 25004KT P6SM SCT030 BKN060
FM211300 30008KT P6SM SCT020 BKN035
Pas de NOTAMs connus pour ce terrain.



MET'MAP, la Météo Aéronautique d'un coup d'oeil ! - Copyright ORBIFLY Décembre 2007 - Disclaimer

ORBIFLY MET'MAP TEAM :

Programmation & Développement : Alexandra Zaïnal
Conception & Développement : Baudouin d'Aumeries
Co-Programmation & Développement : Marc-Olivier Méhu
Soutien technique & logistique : Manuel Goepfert

Contact : metmap@orbifly.com




SOURCES & CREDITS :

   NOAA       Earth
Advisory